sensor_id;sensor_type;location;lat;lon;timestamp;temperature;humidity
22827;DHT22;11580;52.562;13.418;2024-03-23T00:56:04;12.70;39.20
22827;DHT22;11580;52.562;13.418;2024-03-23T00:58:30;12.70;39.10
22827;DHT22;11580;52.562;13.418;2024-03-23T01:00:57;12.70;39.10
22827;DHT22;11580;52.562;13.418;2024-03-23T01:03:23;12.70;39.20
22827;DHT22;11580;52.562;13.418;2024-03-23T01:05:50;12.70;39.20
22827;DHT22;11580;52.562;13.418;2024-03-23T01:08:16;12.70;39.10
22827;DHT22;11580;52.562;13.418;2024-03-23T01:10:54;12.70;39.00
22827;DHT22;11580;52.562;13.418;2024-03-23T01:13:20;12.70;39.30
22827;DHT22;11580;52.562;13.418;2024-03-23T01:15:48;12.70;38.90
22827;DHT22;11580;52.562;13.418;2024-03-23T01:18:14;12.70;39.60
22827;DHT22;11580;52.562;13.418;2024-03-23T01:20:42;12.70;39.00
22827;DHT22;11580;52.562;13.418;2024-03-23T01:23:08;12.60;38.90
22827;DHT22;11580;52.562;13.418;2024-03-23T01:25:35;12.60;39.00
22827;DHT22;11580;52.562;13.418;2024-03-23T01:28:02;12.60;39.00
22827;DHT22;11580;52.562;13.418;2024-03-23T01:30:29;12.60;39.20
22827;DHT22;11580;52.562;13.418;2024-03-23T01:32:56;12.70;39.30
22827;DHT22;11580;52.562;13.418;2024-03-23T01:35:23;12.70;39.40
22827;DHT22;11580;52.562;13.418;2024-03-23T01:37:49;12.70;39.40
22827;DHT22;11580;52.562;13.418;2024-03-23T01:40:16;12.70;39.40
22827;DHT22;11580;52.562;13.418;2024-03-23T01:42:43;12.70;39.40
22827;DHT22;11580;52.562;13.418;2024-03-23T01:45:23;12.80;39.40
22827;DHT22;11580;52.562;13.418;2024-03-23T01:47:49;12.80;39.40
22827;DHT22;11580;52.562;13.418;2024-03-23T01:50:16;12.80;39.30
22827;DHT22;11580;52.562;13.418;2024-03-23T01:52:42;12.90;39.30
22827;DHT22;11580;52.562;13.418;2024-03-23T01:55:10;12.90;39.20
22827;DHT22;11580;52.562;13.418;2024-03-23T01:57:36;12.90;39.20
22827;DHT22;11580;52.562;13.418;2024-03-23T02:00:05;12.90;39.10
22827;DHT22;11580;52.562;13.418;2024-03-23T02:02:42;12.90;39.00
22827;DHT22;11580;52.562;13.418;2024-03-23T02:05:10;12.90;38.70
22827;DHT22;11580;52.562;13.418;2024-03-23T02:07:37;12.90;38.70
22827;DHT22;11580;52.562;13.418;2024-03-23T02:10:06;13.00;39.30
22827;DHT22;11580;52.562;13.418;2024-03-23T02:12:32;12.90;38.50
22827;DHT22;11580;52.562;13.418;2024-03-23T02:14:59;12.90;38.50
22827;DHT22;11580;52.562;13.418;2024-03-23T02:17:25;12.90;38.50
22827;DHT22;11580;52.562;13.418;2024-03-23T02:19:54;13.00;38.50
22827;DHT22;11580;52.562;13.418;2024-03-23T02:22:20;13.00;38.40
22827;DHT22;11580;52.562;13.418;2024-03-23T02:24:48;12.90;38.30
22827;DHT22;11580;52.562;13.418;2024-03-23T02:27:14;13.00;38.30
22827;DHT22;11580;52.562;13.418;2024-03-23T02:29:41;13.00;38.30
22827;DHT22;11580;52.562;13.418;2024-03-23T02:32:07;13.00;38.20
22827;DHT22;11580;52.562;13.418;2024-03-23T02:34:35;13.00;38.20
22827;DHT22;11580;52.562;13.418;2024-03-23T02:37:01;13.00;38.00
22827;DHT22;11580;52.562;13.418;2024-03-23T02:39:28;13.00;37.90
22827;DHT22;11580;52.562;13.418;2024-03-23T02:41:56;13.00;37.90
22827;DHT22;11580;52.562;13.418;2024-03-23T02:44:23;13.00;37.60
22827;DHT22;11580;52.562;13.418;2024-03-23T02:46:49;13.10;37.70
22827;DHT22;11580;52.562;13.418;2024-03-23T02:49:16;13.00;37.60
22827;DHT22;11580;52.562;13.418;2024-03-23T02:51:43;13.00;37.40
22827;DHT22;11580;52.562;13.418;2024-03-23T02:54:10;13.10;37.50
22827;DHT22;11580;52.562;13.418;2024-03-23T02:56:37;13.10;37.40
22827;DHT22;11580;52.562;13.418;2024-03-23T02:59:05;13.00;37.30
22827;DHT22;11580;52.562;13.418;2024-03-23T03:01:32;13.10;37.30
22827;DHT22;11580;52.562;13.418;2024-03-23T03:03:58;13.10;37.40
22827;DHT22;11580;52.562;13.418;2024-03-23T03:06:25;13.10;37.30
22827;DHT22;11580;52.562;13.418;2024-03-23T03:08:52;13.10;37.10
22827;DHT22;11580;52.562;13.418;2024-03-23T03:11:19;13.10;37.00
22827;DHT22;11580;52.562;13.418;2024-03-23T03:13:45;13.10;36.80
22827;DHT22;11580;52.562;13.418;2024-03-23T03:16:13;13.10;36.80
22827;DHT22;11580;52.562;13.418;2024-03-23T03:18:40;13.10;36.80
22827;DHT22;11580;52.562;13.418;2024-03-23T03:21:07;13.10;36.80
22827;DHT22;11580;52.562;13.418;2024-03-23T03:23:36;13.10;36.80
22827;DHT22;11580;52.562;13.418;2024-03-23T03:26:04;13.10;36.80
22827;DHT22;11580;52.562;13.418;2024-03-23T03:28:30;13.10;36.80
22827;DHT22;11580;52.562;13.418;2024-03-23T03:30:58;13.00;36.70
22827;DHT22;11580;52.562;13.418;2024-03-23T03:33:26;13.00;36.70
22827;DHT22;11580;52.562;13.418;2024-03-23T03:35:53;13.00;36.50
22827;DHT22;11580;52.562;13.418;2024-03-23T03:38:20;13.10;36.60
22827;DHT22;11580;52.562;13.418;2024-03-23T03:40:47;13.00;36.60
22827;DHT22;11580;52.562;13.418;2024-03-23T03:43:13;12.90;36.60
22827;DHT22;11580;52.562;13.418;2024-03-23T03:45:40;12.90;36.50
22827;DHT22;11580;52.562;13.418;2024-03-23T03:48:07;12.90;36.50
22827;DHT22;11580;52.562;13.418;2024-03-23T03:50:35;12.90;36.50
22827;DHT22;11580;52.562;13.418;2024-03-23T03:53:01;12.80;36.00
22827;DHT22;11580;52.562;13.418;2024-03-23T03:55:28;12.80;35.90
22827;DHT22;11580;52.562;13.418;2024-03-23T03:57:54;12.80;35.70
22827;DHT22;11580;52.562;13.418;2024-03-23T04:00:21;12.80;35.50
22827;DHT22;11580;52.562;13.418;2024-03-23T04:02:47;12.70;35.40
22827;DHT22;11580;52.562;13.418;2024-03-23T04:05:14;12.70;35.40
22827;DHT22;11580;52.562;13.418;2024-03-23T04:07:42;12.60;35.30
22827;DHT22;11580;52.562;13.418;2024-03-23T04:10:09;12.60;35.10
22827;DHT22;11580;52.562;13.418;2024-03-23T04:12:35;12.50;35.20
22827;DHT22;11580;52.562;13.418;2024-03-23T04:15:03;12.50;35.20
22827;DHT22;11580;52.562;13.418;2024-03-23T04:17:30;12.40;35.10
22827;DHT22;11580;52.562;13.418;2024-03-23T04:20:00;12.40;35.10
22827;DHT22;11580;52.562;13.418;2024-03-23T04:22:27;12.40;35.10
22827;DHT22;11580;52.562;13.418;2024-03-23T04:24:56;12.30;35.00
22827;DHT22;11580;52.562;13.418;2024-03-23T04:27:22;12.30;35.00
22827;DHT22;11580;52.562;13.418;2024-03-23T04:29:49;12.20;35.00
22827;DHT22;11580;52.562;13.418;2024-03-23T04:32:16;12.10;34.90
22827;DHT22;11580;52.562;13.418;2024-03-23T04:34:44;12.10;35.00
22827;DHT22;11580;52.562;13.418;2024-03-23T04:37:11;12.00;35.10
22827;DHT22;11580;52.562;13.418;2024-03-23T04:39:38;12.00;35.30
22827;DHT22;11580;52.562;13.418;2024-03-23T04:42:07;11.90;35.40
22827;DHT22;11580;52.562;13.418;2024-03-23T04:44:34;11.90;35.70
22827;DHT22;11580;52.562;13.418;2024-03-23T04:47:01;11.80;35.70
22827;DHT22;11580;52.562;13.418;2024-03-23T04:49:28;11.80;35.90
22827;DHT22;11580;52.562;13.418;2024-03-23T04:51:55;11.70;36.20
22827;DHT22;11580;52.562;13.418;2024-03-23T04:54:23;11.70;36.50
22827;DHT22;11580;52.562;13.418;2024-03-23T04:56:50;11.70;36.60
22827;DHT22;11580;52.562;13.418;2024-03-23T04:59:17;11.70;36.70
22827;DHT22;11580;52.562;13.418;2024-03-23T05:01:44;11.70;36.60
22827;DHT22;11580;52.562;13.418;2024-03-23T05:04:10;11.70;36.60
22827;DHT22;11580;52.562;13.418;2024-03-23T05:06:37;11.70;36.70
22827;DHT22;11580;52.562;13.418;2024-03-23T05:09:03;11.70;36.80
22827;DHT22;11580;52.562;13.418;2024-03-23T05:11:32;11.80;37.00
22827;DHT22;11580;52.562;13.418;2024-03-23T05:13:58;11.70;37.10
22827;DHT22;11580;52.562;13.418;2024-03-23T05:16:27;11.80;37.40
22827;DHT22;11580;52.562;13.418;2024-03-23T05:18:53;11.80;37.70
22827;DHT22;11580;52.562;13.418;2024-03-23T05:21:20;11.80;37.60
22827;DHT22;11580;52.562;13.418;2024-03-23T05:23:46;11.80;37.70
22827;DHT22;11580;52.562;13.418;2024-03-23T05:26:14;11.80;37.80
22827;DHT22;11580;52.562;13.418;2024-03-23T05:28:40;11.80;37.90
22827;DHT22;11580;52.562;13.418;2024-03-23T05:31:07;11.80;37.90
22827;DHT22;11580;52.562;13.418;2024-03-23T05:33:35;11.90;38.00
22827;DHT22;11580;52.562;13.418;2024-03-23T05:36:04;11.90;38.20
22827;DHT22;11580;52.562;13.418;2024-03-23T05:38:31;11.90;38.30
22827;DHT22;11580;52.562;13.418;2024-03-23T05:40:59;11.90;38.30
22827;DHT22;11580;52.562;13.418;2024-03-23T05:43:26;11.90;38.40
22827;DHT22;11580;52.562;13.418;2024-03-23T05:45:54;11.90;38.40
22827;DHT22;11580;52.562;13.418;2024-03-23T05:48:20;12.00;38.50
22827;DHT22;11580;52.562;13.418;2024-03-23T05:50:49;12.00;38.50
22827;DHT22;11580;52.562;13.418;2024-03-23T05:53:16;12.00;38.70
22827;DHT22;11580;52.562;13.418;2024-03-23T05:55:44;12.00;38.60
22827;DHT22;11580;52.562;13.418;2024-03-23T05:58:10;12.10;38.70
22827;DHT22;11580;52.562;13.418;2024-03-23T06:00:37;12.10;38.80
22827;DHT22;11580;52.562;13.418;2024-03-23T06:03:03;12.10;38.90
22827;DHT22;11580;52.562;13.418;2024-03-23T06:05:31;12.10;38.90
22827;DHT22;11580;52.562;13.418;2024-03-23T06:07:58;12.20;39.00
22827;DHT22;11580;52.562;13.418;2024-03-23T06:10:25;12.20;39.10
22827;DHT22;11580;52.562;13.418;2024-03-23T06:12:51;12.20;39.10
22827;DHT22;11580;52.562;13.418;2024-03-23T06:15:18;12.20;39.10
22827;DHT22;11580;52.562;13.418;2024-03-23T06:17:45;12.20;39.10
22827;DHT22;11580;52.562;13.418;2024-03-23T06:20:12;12.20;39.00
22827;DHT22;11580;52.562;13.418;2024-03-23T06:22:38;12.30;38.90
22827;DHT22;11580;52.562;13.418;2024-03-23T06:25:07;12.20;38.70
22827;DHT22;11580;52.562;13.418;2024-03-23T06:27:34;12.20;38.90
22827;DHT22;11580;52.562;13.418;2024-03-23T06:30:01;12.20;38.80
22827;DHT22;11580;52.562;13.418;2024-03-23T06:32:28;12.20;38.70
22827;DHT22;11580;52.562;13.418;2024-03-23T06:34:55;12.20;38.90
22827;DHT22;11580;52.562;13.418;2024-03-23T06:37:21;12.20;39.10
22827;DHT22;11580;52.562;13.418;2024-03-23T06:39:48;12.20;39.20
22827;DHT22;11580;52.562;13.418;2024-03-23T06:42:15;12.10;39.20
22827;DHT22;11580;52.562;13.418;2024-03-23T06:44:43;12.10;39.40
22827;DHT22;11580;52.562;13.418;2024-03-23T06:47:09;12.10;39.40
22827;DHT22;11580;52.562;13.418;2024-03-23T06:49:36;12.10;39.40
22827;DHT22;11580;52.562;13.418;2024-03-23T06:52:02;12.10;39.50
22827;DHT22;11580;52.562;13.418;2024-03-23T06:54:30;12.10;39.70
22827;DHT22;11580;52.562;13.418;2024-03-23T06:56:56;12.10;39.90
22827;DHT22;11580;52.562;13.418;2024-03-23T06:59:24;12.10;39.80
22827;DHT22;11580;52.562;13.418;2024-03-23T07:01:50;12.10;40.10
22827;DHT22;11580;52.562;13.418;2024-03-23T07:04:17;12.10;40.70
22827;DHT22;11580;52.562;13.418;2024-03-23T07:06:44;12.10;40.30
22827;DHT22;11580;52.562;13.418;2024-03-23T07:09:12;12.10;40.10
22827;DHT22;11580;52.562;13.418;2024-03-23T07:11:38;12.10;40.10
22827;DHT22;11580;52.562;13.418;2024-03-23T07:14:05;12.10;40.10
22827;DHT22;11580;52.562;13.418;2024-03-23T07:16:32;12.10;40.20
22827;DHT22;11580;52.562;13.418;2024-03-23T07:18:59;12.10;40.20
22827;DHT22;11580;52.562;13.418;2024-03-23T07:21:25;12.10;40.10
22827;DHT22;11580;52.562;13.418;2024-03-23T07:23:52;12.20;40.40
22827;DHT22;11580;52.562;13.418;2024-03-23T07:26:18;12.10;39.90
22827;DHT22;11580;52.562;13.418;2024-03-23T07:28:45;12.00;39.60
22827;DHT22;11580;52.562;13.418;2024-03-23T07:31:13;12.00;39.70
22827;DHT22;11580;52.562;13.418;2024-03-23T07:33:46;12.00;39.90
22827;DHT22;11580;52.562;13.418;2024-03-23T07:36:14;11.90;40.50
22827;DHT22;11580;52.562;13.418;2024-03-23T07:38:42;11.90;39.80
22827;DHT22;11580;52.562;13.418;2024-03-23T07:41:09;11.90;40.10
22827;DHT22;11580;52.562;13.418;2024-03-23T07:43:37;11.90;40.00
22827;DHT22;11580;52.562;13.418;2024-03-23T07:46:04;11.90;39.80
22827;DHT22;11580;52.562;13.418;2024-03-23T07:48:31;12.00;39.80
22827;DHT22;11580;52.562;13.418;2024-03-23T07:51:00;11.80;40.00
22827;DHT22;11580;52.562;13.418;2024-03-23T07:53:28;11.80;40.90
22827;DHT22;11580;52.562;13.418;2024-03-23T07:55:57;11.80;40.50
22827;DHT22;11580;52.562;13.418;2024-03-23T07:58:25;11.70;40.60
22827;DHT22;11580;52.562;13.418;2024-03-23T08:00:52;11.70;40.50
22827;DHT22;11580;52.562;13.418;2024-03-23T08:03:19;11.70;40.20
22827;DHT22;11580;52.562;13.418;2024-03-23T08:05:46;11.70;40.00
22827;DHT22;11580;52.562;13.418;2024-03-23T08:08:14;11.70;39.80
22827;DHT22;11580;52.562;13.418;2024-03-23T08:10:48;11.70;40.00
22827;DHT22;11580;52.562;13.418;2024-03-23T08:13:15;11.60;40.10
22827;DHT22;11580;52.562;13.418;2024-03-23T08:15:41;11.60;39.70
22827;DHT22;11580;52.562;13.418;2024-03-23T08:18:10;11.70;39.60
22827;DHT22;11580;52.562;13.418;2024-03-23T08:20:36;11.40;39.50
22827;DHT22;11580;52.562;13.418;2024-03-23T08:23:03;11.40;39.10
22827;DHT22;11580;52.562;13.418;2024-03-23T08:25:32;11.30;39.00
22827;DHT22;11580;52.562;13.418;2024-03-23T08:27:59;11.30;39.20
22827;DHT22;11580;52.562;13.418;2024-03-23T08:30:26;11.20;39.10
22827;DHT22;11580;52.562;13.418;2024-03-23T08:32:54;11.10;39.30
22827;DHT22;11580;52.562;13.418;2024-03-23T08:35:20;11.10;39.40
22827;DHT22;11580;52.562;13.418;2024-03-23T08:37:47;11.00;39.60
22827;DHT22;11580;52.562;13.418;2024-03-23T08:40:13;10.90;39.70
22827;DHT22;11580;52.562;13.418;2024-03-23T08:42:42;10.90;39.60
22827;DHT22;11580;52.562;13.418;2024-03-23T08:45:08;10.80;39.50
22827;DHT22;11580;52.562;13.418;2024-03-23T08:47:35;10.80;39.20
22827;DHT22;11580;52.562;13.418;2024-03-23T08:50:01;10.80;39.30
22827;DHT22;11580;52.562;13.418;2024-03-23T08:52:28;10.70;39.70
22827;DHT22;11580;52.562;13.418;2024-03-23T08:54:55;10.70;39.90
22827;DHT22;11580;52.562;13.418;2024-03-23T08:57:22;10.70;40.00
22827;DHT22;11580;52.562;13.418;2024-03-23T08:59:50;10.60;40.00
22827;DHT22;11580;52.562;13.418;2024-03-23T09:02:17;10.60;39.50
22827;DHT22;11580;52.562;13.418;2024-03-23T09:04:44;10.60;39.00
22827;DHT22;11580;52.562;13.418;2024-03-23T09:07:11;10.60;38.70
22827;DHT22;11580;52.562;13.418;2024-03-23T09:09:38;10.50;38.30
22827;DHT22;11580;52.562;13.418;2024-03-23T09:12:06;10.40;38.30
22827;DHT22;11580;52.562;13.418;2024-03-23T09:14:33;10.30;38.50
22827;DHT22;11580;52.562;13.418;2024-03-23T09:17:01;10.20;38.50
22827;DHT22;11580;52.562;13.418;2024-03-23T09:19:28;10.20;38.70
22827;DHT22;11580;52.562;13.418;2024-03-23T09:21:55;10.00;38.70
22827;DHT22;11580;52.562;13.418;2024-03-23T09:24:22;10.00;39.10
22827;DHT22;11580;52.562;13.418;2024-03-23T09:26:48;9.90;40.40
22827;DHT22;11580;52.562;13.418;2024-03-23T09:29:14;9.90;40.20
22827;DHT22;11580;52.562;13.418;2024-03-23T09:31:41;9.90;40.50
22827;DHT22;11580;52.562;13.418;2024-03-23T09:34:09;9.90;40.80
22827;DHT22;11580;52.562;13.418;2024-03-23T09:36:36;9.80;41.00
22827;DHT22;11580;52.562;13.418;2024-03-23T09:39:02;9.70;40.90
22827;DHT22;11580;52.562;13.418;2024-03-23T09:41:31;9.80;41.00
22827;DHT22;11580;52.562;13.418;2024-03-23T09:43:57;9.80;40.80
22827;DHT22;11580;52.562;13.418;2024-03-23T09:46:24;9.80;40.50
22827;DHT22;11580;52.562;13.418;2024-03-23T09:48:50;9.80;40.40
22827;DHT22;11580;52.562;13.418;2024-03-23T09:51:18;9.70;40.40
22827;DHT22;11580;52.562;13.418;2024-03-23T09:53:44;9.70;40.30
22827;DHT22;11580;52.562;13.418;2024-03-23T09:56:11;9.70;40.30
22827;DHT22;11580;52.562;13.418;2024-03-23T09:58:37;9.70;40.60
22827;DHT22;11580;52.562;13.418;2024-03-23T10:01:05;9.60;40.50
22827;DHT22;11580;52.562;13.418;2024-03-23T10:03:31;9.60;40.80
22827;DHT22;11580;52.562;13.418;2024-03-23T10:06:02;9.60;40.80
22827;DHT22;11580;52.562;13.418;2024-03-23T10:08:30;9.60;40.80
22827;DHT22;11580;52.562;13.418;2024-03-23T10:11:13;9.60;40.80
22827;DHT22;11580;52.562;13.418;2024-03-23T10:13:42;9.60;41.50
22827;DHT22;11580;52.562;13.418;2024-03-23T10:16:10;9.50;40.70
22827;DHT22;11580;52.562;13.418;2024-03-23T10:18:39;9.60;40.80
22827;DHT22;11580;52.562;13.418;2024-03-23T10:21:07;9.60;40.90
22827;DHT22;11580;52.562;13.418;2024-03-23T10:23:38;9.50;40.70
22827;DHT22;11580;52.562;13.418;2024-03-23T10:26:17;9.60;41.10
22827;DHT22;11580;52.562;13.418;2024-03-23T10:28:57;9.60;41.60
22827;DHT22;11580;52.562;13.418;2024-03-23T10:31:26;9.60;41.80
22827;DHT22;11580;52.562;13.418;2024-03-23T10:33:52;9.60;40.90
22827;DHT22;11580;52.562;13.418;2024-03-23T10:36:20;9.60;40.80
22827;DHT22;11580;52.562;13.418;2024-03-23T10:38:50;9.70;40.90
22827;DHT22;11580;52.562;13.418;2024-03-23T10:41:18;9.60;41.40
22827;DHT22;11580;52.562;13.418;2024-03-23T10:43:46;9.70;41.60
22827;DHT22;11580;52.562;13.418;2024-03-23T10:46:14;9.70;42.00
22827;DHT22;11580;52.562;13.418;2024-03-23T10:48:40;9.80;42.30
22827;DHT22;11580;52.562;13.418;2024-03-23T10:51:10;9.80;42.50
22827;DHT22;11580;52.562;13.418;2024-03-23T10:53:36;9.90;42.40
22827;DHT22;11580;52.562;13.418;2024-03-23T10:56:06;9.90;42.00
22827;DHT22;11580;52.562;13.418;2024-03-23T10:58:41;10.00;41.40
22827;DHT22;11580;52.562;13.418;2024-03-23T11:01:11;10.00;41.90
22827;DHT22;11580;52.562;13.418;2024-03-23T11:03:38;10.10;42.00
22827;DHT22;11580;52.562;13.418;2024-03-23T11:06:07;10.20;42.50
22827;DHT22;11580;52.562;13.418;2024-03-23T11:08:35;10.20;42.70
22827;DHT22;11580;52.562;13.418;2024-03-23T11:11:27;10.40;43.20
22827;DHT22;11580;52.562;13.418;2024-03-23T11:13:58;10.50;44.10
22827;DHT22;11580;52.562;13.418;2024-03-23T11:16:25;10.60;43.70
22827;DHT22;11580;52.562;13.418;2024-03-23T11:19:34;10.80;44.10
22827;DHT22;11580;52.562;13.418;2024-03-23T11:22:02;10.90;45.10
22827;DHT22;11580;52.562;13.418;2024-03-23T11:24:30;11.10;44.40
22827;DHT22;11580;52.562;13.418;2024-03-23T11:26:59;11.20;44.40
22827;DHT22;11580;52.562;13.418;2024-03-23T11:29:29;11.40;44.30
22827;DHT22;11580;52.562;13.418;2024-03-23T11:31:56;11.50;43.50
22827;DHT22;11580;52.562;13.418;2024-03-23T11:34:23;11.50;42.70
22827;DHT22;11580;52.562;13.418;2024-03-23T11:36:50;11.50;42.50
22827;DHT22;11580;52.562;13.418;2024-03-23T11:39:30;11.60;42.80
22827;DHT22;11580;52.562;13.418;2024-03-23T11:41:58;11.60;43.10
22827;DHT22;11580;52.562;13.418;2024-03-23T11:44:25;11.60;43.50
22827;DHT22;11580;52.562;13.418;2024-03-23T11:46:52;11.70;44.10
22827;DHT22;11580;52.562;13.418;2024-03-23T11:49:23;11.70;44.90
22827;DHT22;11580;52.562;13.418;2024-03-23T11:51:50;11.90;45.70
22827;DHT22;11580;52.562;13.418;2024-03-23T11:54:20;12.00;46.10
22827;DHT22;11580;52.562;13.418;2024-03-23T11:56:58;12.20;46.60
22827;DHT22;11580;52.562;13.418;2024-03-23T11:59:33;12.40;47.50
22827;DHT22;11580;52.562;13.418;2024-03-23T12:02:00;12.60;47.70
22827;DHT22;11580;52.562;13.418;2024-03-23T12:04:28;12.80;47.20
22827;DHT22;11580;52.562;13.418;2024-03-23T12:07:11;13.00;46.80
22827;DHT22;11580;52.562;13.418;2024-03-23T12:09:38;13.20;47.60
22827;DHT22;11580;52.562;13.418;2024-03-23T12:12:11;13.30;46.30
22827;DHT22;11580;52.562;13.418;2024-03-23T12:14:41;13.40;46.60
22827;DHT22;11580;52.562;13.418;2024-03-23T12:17:11;13.50;45.90
22827;DHT22;11580;52.562;13.418;2024-03-23T12:19:39;13.60;46.20
22827;DHT22;11580;52.562;13.418;2024-03-23T12:22:07;13.60;45.50
22827;DHT22;11580;52.562;13.418;2024-03-23T12:24:34;13.70;45.30
22827;DHT22;11580;52.562;13.418;2024-03-23T12:27:01;13.70;45.10
22827;DHT22;11580;52.562;13.418;2024-03-23T12:29:30;13.70;44.90
22827;DHT22;11580;52.562;13.418;2024-03-23T12:31:59;13.70;44.70
22827;DHT22;11580;52.562;13.418;2024-03-23T12:34:27;13.80;44.90
22827;DHT22;11580;52.562;13.418;2024-03-23T12:36:54;13.80;44.80
22827;DHT22;11580;52.562;13.418;2024-03-23T12:39:21;13.70;45.10
22827;DHT22;11580;52.562;13.418;2024-03-23T12:41:47;13.80;45.40
22827;DHT22;11580;52.562;13.418;2024-03-23T12:44:14;13.80;45.80
22827;DHT22;11580;52.562;13.418;2024-03-23T12:46:42;13.90;46.20
22827;DHT22;11580;52.562;13.418;2024-03-23T12:49:09;14.00;46.50
22827;DHT22;11580;52.562;13.418;2024-03-23T12:51:35;14.10;46.60
22827;DHT22;11580;52.562;13.418;2024-03-23T12:54:02;14.10;46.40
22827;DHT22;11580;52.562;13.418;2024-03-23T12:56:28;14.20;46.30
22827;DHT22;11580;52.562;13.418;2024-03-23T12:58:56;14.30;46.40
22827;DHT22;11580;52.562;13.418;2024-03-23T13:01:22;14.40;46.20
22827;DHT22;11580;52.562;13.418;2024-03-23T13:03:51;14.40;46.00
22827;DHT22;11580;52.562;13.418;2024-03-23T13:06:17;14.50;45.80
22827;DHT22;11580;52.562;13.418;2024-03-23T13:08:45;14.50;45.70
22827;DHT22;11580;52.562;13.418;2024-03-23T13:11:11;14.50;45.90
22827;DHT22;11580;52.562;13.418;2024-03-23T13:13:39;14.60;46.20
22827;DHT22;11580;52.562;13.418;2024-03-23T13:16:05;14.60;46.30
22827;DHT22;11580;52.562;13.418;2024-03-23T13:18:33;14.70;46.30
22827;DHT22;11580;52.562;13.418;2024-03-23T13:21:00;14.70;45.70
22827;DHT22;11580;52.562;13.418;2024-03-23T13:23:27;14.70;45.40
22827;DHT22;11580;52.562;13.418;2024-03-23T13:25:55;14.70;45.30
22827;DHT22;11580;52.562;13.418;2024-03-23T13:28:22;14.70;45.50
22827;DHT22;11580;52.562;13.418;2024-03-23T13:30:52;14.70;45.50
22827;DHT22;11580;52.562;13.418;2024-03-23T13:33:20;14.70;45.50
22827;DHT22;11580;52.562;13.418;2024-03-23T13:35:49;14.70;45.40
22827;DHT22;11580;52.562;13.418;2024-03-23T13:38:18;14.70;45.40
22827;DHT22;11580;52.562;13.418;2024-03-23T13:40:51;14.70;45.40
22827;DHT22;11580;52.562;13.418;2024-03-23T13:43:19;14.70;45.60
22827;DHT22;11580;52.562;13.418;2024-03-23T13:45:46;14.70;45.50
22827;DHT22;11580;52.562;13.418;2024-03-23T13:48:14;14.70;45.60
22827;DHT22;11580;52.562;13.418;2024-03-23T13:50:40;14.80;45.60
22827;DHT22;11580;52.562;13.418;2024-03-23T13:53:07;14.70;45.00
22827;DHT22;11580;52.562;13.418;2024-03-23T13:55:35;14.80;44.40
22827;DHT22;11580;52.562;13.418;2024-03-23T13:58:02;14.70;44.30
22827;DHT22;11580;52.562;13.418;2024-03-23T14:00:29;14.70;44.60
22827;DHT22;11580;52.562;13.418;2024-03-23T14:02:58;14.60;45.60
22827;DHT22;11580;52.562;13.418;2024-03-23T14:05:24;14.70;46.10
22827;DHT22;11580;52.562;13.418;2024-03-23T14:07:51;14.60;45.70
22827;DHT22;11580;52.562;13.418;2024-03-23T14:10:17;14.70;45.70
22827;DHT22;11580;52.562;13.418;2024-03-23T14:12:45;14.80;46.00
22827;DHT22;11580;52.562;13.418;2024-03-23T14:15:12;14.80;46.00
22827;DHT22;11580;52.562;13.418;2024-03-23T14:17:38;14.80;45.70
22827;DHT22;11580;52.562;13.418;2024-03-23T14:20:06;14.80;45.20
22827;DHT22;11580;52.562;13.418;2024-03-23T14:22:36;14.80;44.40
22827;DHT22;11580;52.562;13.418;2024-03-23T14:25:04;14.80;44.40
22827;DHT22;11580;52.562;13.418;2024-03-23T14:27:31;14.70;44.30
22827;DHT22;11580;52.562;13.418;2024-03-23T14:29:59;14.70;44.10
22827;DHT22;11580;52.562;13.418;2024-03-23T14:32:25;14.60;43.60
22827;DHT22;11580;52.562;13.418;2024-03-23T14:34:52;14.60;43.30
22827;DHT22;11580;52.562;13.418;2024-03-23T14:37:20;14.50;42.80
22827;DHT22;11580;52.562;13.418;2024-03-23T14:39:47;14.40;42.70
22827;DHT22;11580;52.562;13.418;2024-03-23T14:42:13;14.30;42.70
22827;DHT22;11580;52.562;13.418;2024-03-23T14:44:40;14.20;41.50
22827;DHT22;11580;52.562;13.418;2024-03-23T14:47:07;14.10;40.10
22827;DHT22;11580;52.562;13.418;2024-03-23T14:49:34;13.90;38.60
22827;DHT22;11580;52.562;13.418;2024-03-23T14:52:00;13.70;37.70
22827;DHT22;11580;52.562;13.418;2024-03-23T14:54:27;13.40;37.30
22827;DHT22;11580;52.562;13.418;2024-03-23T14:56:53;13.20;37.40
22827;DHT22;11580;52.562;13.418;2024-03-23T14:59:20;12.90;37.40
22827;DHT22;11580;52.562;13.418;2024-03-23T15:01:46;12.60;37.50
22827;DHT22;11580;52.562;13.418;2024-03-23T15:04:14;12.40;38.40
22827;DHT22;11580;52.562;13.418;2024-03-23T15:06:40;12.10;39.10
22827;DHT22;11580;52.562;13.418;2024-03-23T15:09:07;11.90;40.00
22827;DHT22;11580;52.562;13.418;2024-03-23T15:11:36;11.80;41.40
22827;DHT22;11580;52.562;13.418;2024-03-23T15:14:03;11.80;42.10
22827;DHT22;11580;52.562;13.418;2024-03-23T15:16:32;11.70;42.60
22827;DHT22;11580;52.562;13.418;2024-03-23T15:18:58;11.70;42.60
22827;DHT22;11580;52.562;13.418;2024-03-23T15:21:27;11.70;42.30
22827;DHT22;11580;52.562;13.418;2024-03-23T15:23:53;11.70;42.20
22827;DHT22;11580;52.562;13.418;2024-03-23T15:26:21;11.70;41.70
22827;DHT22;11580;52.562;13.418;2024-03-23T15:28:48;11.70;41.70
22827;DHT22;11580;52.562;13.418;2024-03-23T15:31:35;11.60;41.60
22827;DHT22;11580;52.562;13.418;2024-03-23T15:34:01;11.60;41.60
22827;DHT22;11580;52.562;13.418;2024-03-23T15:36:30;11.50;41.50
22827;DHT22;11580;52.562;13.418;2024-03-23T15:38:56;11.50;41.50
22827;DHT22;11580;52.562;13.418;2024-03-23T15:41:23;11.50;41.50
22827;DHT22;11580;52.562;13.418;2024-03-23T15:43:50;11.50;41.60
22827;DHT22;11580;52.562;13.418;2024-03-23T15:46:17;11.40;41.40
22827;DHT22;11580;52.562;13.418;2024-03-23T15:48:44;11.40;41.40
22827;DHT22;11580;52.562;13.418;2024-03-23T15:51:13;11.30;41.40
22827;DHT22;11580;52.562;13.418;2024-03-23T15:53:41;11.30;41.40
22827;DHT22;11580;52.562;13.418;2024-03-23T15:56:08;11.30;41.50
22827;DHT22;11580;52.562;13.418;2024-03-23T15:58:34;11.30;41.40
22827;DHT22;11580;52.562;13.418;2024-03-23T16:01:02;11.20;42.10
22827;DHT22;11580;52.562;13.418;2024-03-23T16:03:29;11.30;41.70
22827;DHT22;11580;52.562;13.418;2024-03-23T16:05:58;11.30;41.60
22827;DHT22;11580;52.562;13.418;2024-03-23T16:08:26;11.20;41.60
22827;DHT22;11580;52.562;13.418;2024-03-23T16:10:59;11.20;41.70
22827;DHT22;11580;52.562;13.418;2024-03-23T16:13:25;11.20;41.80
22827;DHT22;11580;52.562;13.418;2024-03-23T16:15:56;11.20;41.70